Time;durP1;ratioP1;P1;durP2;ratioP2;P2;SDS_P1;SDS_P2;PMS_P1;PMS_P2;Temp;Humidity;BMP_temperature;BMP_pressure;BME280_temperature;BME280_humidity;BME280_pressure;Samples;Min_cycle;Max_cycle;Signal;HPM_P1;HPM_P2
2023/07/18 00:00:32;;;;;;;0.60;0.60;;;;;;;30.56;96.40;99987.16;5052756;28;20226;-68
2023/07/18 00:02:59;;;;;;;0.80;0.80;;;;;;;30.51;89.23;100003.50;5017298;28;20198;-68
2023/07/18 00:05:26;;;;;;;0.70;0.70;;;;;;;30.40;86.06;99987.28;5052624;28;20203;-68
2023/07/18 00:07:55;;;;;;;0.60;0.60;;;;;;;30.45;86.68;99990.56;5052216;28;20577;-68
2023/07/18 00:10:23;;;;;;;0.70;0.70;;;;;;;30.48;85.94;99985.00;5051287;28;20228;-68
2023/07/18 00:12:50;;;;;;;0.60;0.60;;;;;;;30.50;84.85;99975.88;5052308;28;20719;-68
2023/07/18 00:15:18;;;;;;;0.70;0.70;;;;;;;30.12;85.21;99891.16;5052188;28;20222;-68
2023/07/18 00:17:45;;;;;;;0.70;0.70;;;;;;;30.55;85.47;99964.00;5052052;28;20203;-68
2023/07/18 00:20:17;;;;;;;0.75;0.75;;;;;;;30.63;84.86;99962.53;5052077;28;20209;-68
2023/07/18 00:22:48;;;;;;;0.60;0.60;;;;;;;30.40;85.21;99925.75;5052036;28;20210;-68
2023/07/18 00:25:18;;;;;;;0.60;0.60;;;;;;;30.56;85.17;99939.81;5052148;28;20272;-68
2023/07/18 00:27:46;;;;;;;0.65;0.65;;;;;;;30.56;85.35;99947.84;5051590;28;20195;-68
2023/07/18 00:30:13;;;;;;;0.63;0.63;;;;;;;30.63;84.87;99951.81;5051763;28;20288;-67
2023/07/18 00:32:41;;;;;;;0.70;0.70;;;;;;;30.63;84.37;99951.81;5051413;28;20207;-67
2023/07/18 00:35:08;;;;;;;0.85;0.85;;;;;;;30.69;83.56;99954.06;5051626;28;20199;-68
2023/07/18 00:37:35;;;;;;;0.80;0.80;;;;;;;30.65;83.80;99959.72;5012809;28;20199;-68
2023/07/18 00:40:10;;;;;;;0.70;0.70;;;;;;;30.61;83.14;99959.09;5046914;28;20206;-67
2023/07/18 00:42:38;;;;;;;0.70;0.70;;;;;;;30.65;82.95;99960.59;5051717;28;20263;-67
2023/07/18 00:45:07;;;;;;;0.60;0.60;;;;;;;30.56;83.68;99961.25;5051493;28;20206;-67
2023/07/18 00:47:37;;;;;;;0.70;0.70;;;;;;;30.52;84.39;99953.53;5051766;28;20195;-67
2023/07/18 00:50:07;;;;;;;0.85;0.85;;;;;;;30.51;84.67;99949.97;5051523;28;20633;-67
2023/07/18 00:52:34;;;;;;;0.95;0.95;;;;;;;30.45;85.15;99948.59;5051496;28;20194;-67
2023/07/18 00:55:02;;;;;;;0.73;0.73;;;;;;;30.42;84.95;99945.28;5051363;28;20199;-67
2023/07/18 00:57:29;;;;;;;0.93;0.93;;;;;;;30.24;84.82;99949.19;5051359;28;20266;-68
2023/07/18 00:59:57;;;;;;;0.60;0.60;;;;;;;30.35;84.54;99947.50;5051576;28;20203;-67
2023/07/18 01:02:24;;;;;;;0.60;0.60;;;;;;;30.27;87.06;99943.63;5051328;28;20202;-67
2023/07/18 01:04:50;;;;;;;1.88;1.77;;;;;;;30.28;95.14;99940.84;5051251;28;20203;-67
2023/07/18 01:07:18;;;;;;;0.60;0.60;;;;;;;30.28;99.86;99943.53;5016148;28;20276;-67
2023/07/18 01:09:47;;;;;;;0.60;0.60;;;;;;;30.13;100.00;99946.38;5051058;28;20223;-67
2023/07/18 01:12:14;;;;;;;0.60;0.60;;;;;;;30.02;100.00;99945.28;5051053;28;20257;-66
2023/07/18 01:14:40;;;;;;;0.70;0.70;;;;;;;29.99;100.00;99933.94;5051115;28;20298;-67
2023/07/18 01:17:11;;;;;;;0.63;0.63;;;;;;;30.08;100.00;99937.78;5051144;28;20253;-67
2023/07/18 01:19:38;;;;;;;0.65;0.65;;;;;;;29.93;100.00;99939.72;5051181;28;20202;-67
2023/07/18 01:22:08;;;;;;;1.25;1.15;;;;;;;29.91;100.00;99947.81;5050772;28;20195;-67
2023/07/18 01:24:35;;;;;;;0.75;0.75;;;;;;;29.75;100.00;99951.59;5051349;28;20203;-67
2023/07/18 01:27:01;;;;;;;0.60;0.60;;;;;;;29.48;100.00;99907.00;5032322;28;20202;-67
2023/07/18 01:29:28;;;;;;;0.70;0.70;;;;;;;29.67;100.00;99951.22;5015823;28;20202;-66
2023/07/18 01:31:55;;;;;;;0.50;0.50;;;;;;;29.64;100.00;99951.44;5012151;28;20204;-67
2023/07/18 01:34:22;;;;;;;0.73;0.73;;;;;;;29.61;100.00;99955.16;5030922;28;20203;-67
2023/07/18 01:36:48;;;;;;;0.60;0.60;;;;;;;29.60;100.00;99952.59;4996073;28;20195;-67
2023/07/18 01:39:17;;;;;;;0.68;0.68;;;;;;;29.48;100.00;99939.06;4996186;28;20621;-66
2023/07/18 01:41:43;;;;;;;0.65;0.65;;;;;;;29.40;100.00;99940.50;5030806;28;20204;-67
2023/07/18 01:44:10;;;;;;;0.60;0.60;;;;;;;29.43;100.00;99945.69;5030908;28;20195;-67
2023/07/18 01:46:37;;;;;;;0.50;0.50;;;;;;;29.41;100.00;99947.56;5040022;28;20211;-68
2023/07/18 01:49:04;;;;;;;0.60;0.60;;;;;;;29.57;100.00;99953.66;5050628;28;20203;-67
2023/07/18 01:51:31;;;;;;;0.60;0.60;;;;;;;29.60;100.00;99947.25;5015200;28;20230;-66
2023/07/18 01:53:57;;;;;;;0.70;0.70;;;;;;;29.41;100.00;99936.88;5050477;28;20206;-67
2023/07/18 01:56:26;;;;;;;0.60;0.60;;;;;;;29.43;100.00;99951.84;5050247;28;20219;-67
2023/07/18 01:58:52;;;;;;;1.10;1.10;;;;;;;29.25;100.00;99968.19;5049997;28;20644;-67
2023/07/18 02:01:19;;;;;;;0.60;0.60;;;;;;;29.20;100.00;99968.47;5050532;28;20282;-67
2023/07/18 02:03:46;;;;;;;0.60;0.60;;;;;;;28.97;100.00;99961.91;5050243;28;20202;-67
2023/07/18 02:06:13;;;;;;;0.60;0.60;;;;;;;28.95;100.00;99958.47;5050003;28;20206;-67
2023/07/18 02:08:40;;;;;;;0.60;0.60;;;;;;;28.96;100.00;99978.03;5031489;28;20685;-67
2023/07/18 02:11:07;;;;;;;0.70;0.70;;;;;;;28.95;100.00;99979.84;5049811;28;20218;-67
2023/07/18 02:13:35;;;;;;;0.60;0.60;;;;;;;28.95;100.00;99954.94;5015130;28;20214;-67
2023/07/18 02:16:02;;;;;;;0.98;0.98;;;;;;;28.92;100.00;99977.38;5050353;28;20206;-67
2023/07/18 02:18:29;;;;;;;0.60;0.60;;;;;;;28.82;100.00;99981.56;5049795;28;20202;-67
2023/07/18 02:20:55;;;;;;;0.63;0.63;;;;;;;28.83;100.00;99977.91;5049930;28;20275;-67
2023/07/18 02:23:22;;;;;;;0.90;0.85;;;;;;;28.77;100.00;99970.31;5050174;28;20203;-67
2023/07/18 02:25:49;;;;;;;0.60;0.60;;;;;;;28.71;100.00;99973.34;5049882;28;20626;-67
2023/07/18 02:28:15;;;;;;;0.60;0.60;;;;;;;28.80;100.00;99967.44;5050238;28;20670;-67
2023/07/18 02:30:44;;;;;;;0.60;0.60;;;;;;;28.90;100.00;99968.59;5049770;28;20703;-68
2023/07/18 02:33:10;;;;;;;0.60;0.60;;;;;;;28.82;100.00;99973.56;5050361;28;20210;-67
2023/07/18 02:35:37;;;;;;;0.65;0.65;;;;;;;28.70;100.00;99960.09;5053750;28;20203;-67
2023/07/18 02:38:04;;;;;;;0.55;0.55;;;;;;;28.82;100.00;99975.38;5053844;28;20572;-67
2023/07/18 02:40:32;;;;;;;0.60;0.60;;;;;;;28.79;100.00;99978.22;5053183;28;20207;-68
2023/07/18 02:42:59;;;;;;;1.40;1.40;;;;;;;28.79;100.00;99970.22;5053912;28;21126;-68
2023/07/18 02:45:25;;;;;;;0.70;0.70;;;;;;;28.63;100.00;99940.91;5053748;28;20294;-67
2023/07/18 02:47:53;;;;;;;0.60;0.60;;;;;;;28.84;100.00;99963.63;5054044;28;20214;-67
2023/07/18 02:50:20;;;;;;;0.70;0.70;;;;;;;28.69;100.00;99969.03;5018519;28;20256;-68
2023/07/18 02:52:48;;;;;;;0.70;0.70;;;;;;;28.45;100.00;99931.34;5053778;28;20206;-67
2023/07/18 02:55:15;;;;;;;0.60;0.60;;;;;;;28.62;100.00;99959.66;5054152;28;20206;-68
2023/07/18 02:57:41;;;;;;;0.60;0.60;;;;;;;28.53;100.00;99953.97;5053845;28;20281;-68
2023/07/18 03:00:19;;;;;;;0.60;0.60;;;;;;;28.58;100.00;99957.19;5054041;28;20203;-68
2023/07/18 03:02:48;;;;;;;0.60;0.60;;;;;;;28.61;100.00;99960.63;5053278;28;20688;-67
2023/07/18 03:05:16;;;;;;;1.35;1.35;;;;;;;28.71;100.00;99954.69;5053177;28;20199;-67
2023/07/18 03:07:44;;;;;;;0.88;0.88;;;;;;;28.50;100.00;99932.78;5053520;28;20230;-67
2023/07/18 03:10:11;;;;;;;0.73;0.73;;;;;;;28.52;100.00;99946.03;5053431;28;20618;-67
2023/07/18 03:12:40;;;;;;;0.70;0.70;;;;;;;28.40;100.00;99938.75;5053109;28;20742;-67
2023/07/18 03:15:09;;;;;;;0.60;0.60;;;;;;;28.33;100.00;99929.41;5053456;28;20199;-67
2023/07/18 03:17:36;;;;;;;0.70;0.70;;;;;;;28.51;100.00;99946.97;5053305;28;20708;-68
2023/07/18 03:20:06;;;;;;;0.60;0.60;;;;;;;28.74;100.00;99951.81;5053206;28;20726;-67
2023/07/18 03:22:35;;;;;;;0.73;0.73;;;;;;;28.81;100.00;99950.47;5053176;28;20668;-68
2023/07/18 03:25:07;;;;;;;0.70;0.70;;;;;;;28.94;100.00;99959.44;5051494;28;20207;-67
2023/07/18 03:27:33;;;;;;;1.00;1.00;;;;;;;28.77;100.00;99946.28;5047857;28;20678;-68
2023/07/18 03:30:00;;;;;;;0.70;0.70;;;;;;;28.91;100.00;99959.63;5017438;28;20200;-68
2023/07/18 03:32:28;;;;;;;0.60;0.60;;;;;;;28.98;100.00;99928.06;5033962;28;20206;-68
2023/07/18 03:34:55;;;;;;;0.60;0.60;;;;;;;29.36;100.00;99958.53;5052634;28;20199;-68
2023/07/18 03:37:21;;;;;;;0.60;0.60;;;;;;;29.57;100.00;99950.97;5052464;28;20587;-68
2023/07/18 03:39:49;;;;;;;1.35;1.25;;;;;;;29.92;99.01;99960.25;5049095;28;20207;-70
2023/07/18 03:42:16;;;;;;;5.57;1.75;;;;;;;30.14;97.14;99958.78;5048289;28;20287;-68
2023/07/18 03:44:43;;;;;;;0.60;0.60;;;;;;;30.38;93.87;99962.47;5049145;28;20639;-67
2023/07/18 03:47:10;;;;;;;0.63;0.63;;;;;;;30.75;92.54;99971.53;5051430;28;20646;-68
2023/07/18 03:49:37;;;;;;;0.60;0.60;;;;;;;31.15;90.71;99964.22;5052066;28;20265;-68
2023/07/18 03:52:04;;;;;;;0.80;0.80;;;;;;;31.28;88.11;99965.94;5052171;28;20215;-68
2023/07/18 03:54:33;;;;;;;0.60;0.60;;;;;;;31.39;87.45;99983.91;5017379;28;20207;-68
2023/07/18 03:57:01;;;;;;;0.50;0.50;;;;;;;31.40;86.67;99991.81;5052262;28;21395;-68
2023/07/18 03:59:28;;;;;;;1.85;1.80;;;;;;;31.36;86.50;100005.56;4979909;28;20195;-67
2023/07/18 04:01:55;;;;;;;0.73;0.73;;;;;;;31.24;86.77;100011.81;5051699;28;20626;-68
2023/07/18 04:04:22;;;;;;;0.60;0.60;;;;;;;31.43;86.64;100013.03;5051760;28;20564;-67
2023/07/18 04:06:48;;;;;;;0.80;0.80;;;;;;;31.60;84.76;100024.41;5051596;28;20550;-67
2023/07/18 04:09:15;;;;;;;0.73;0.73;;;;;;;31.99;82.84;100026.00;5051621;28;20713;-68
2023/07/18 04:11:45;;;;;;;0.63;0.63;;;;;;;32.33;79.77;100015.31;5050944;28;20732;-69
2023/07/18 04:14:14;;;;;;;0.68;0.68;;;;;;;32.76;77.18;100012.03;5051722;28;20222;-70
2023/07/18 04:16:41;;;;;;;0.50;0.50;;;;;;;32.96;74.04;100019.41;5051353;28;20195;-69
2023/07/18 04:19:09;;;;;;;0.75;0.75;;;;;;;33.14;71.78;100028.72;5051724;28;20626;-71
2023/07/18 04:21:36;;;;;;;0.50;0.50;;;;;;;33.59;68.82;100026.88;5051980;28;20290;-70
2023/07/18 04:24:04;;;;;;;0.60;0.60;;;;;;;33.84;67.30;100023.94;5052656;28;20209;-75
2023/07/18 04:26:30;;;;;;;0.55;0.55;;;;;;;33.92;65.42;100004.47;5052317;28;20207;-78
2023/07/18 04:28:57;;;;;;;0.52;0.52;;;;;;;34.22;64.43;100020.78;5052351;28;20202;-76
2023/07/18 04:31:25;;;;;;;0.50;0.50;;;;;;;34.58;62.32;100024.88;5052174;28;20657;-75
2023/07/18 04:33:52;;;;;;;0.75;0.75;;;;;;;34.86;60.67;100007.22;5051992;28;20195;-76
2023/07/18 04:36:19;;;;;;;0.60;0.60;;;;;;;35.16;59.79;100012.66;5052232;28;20199;-76
2023/07/18 04:38:46;;;;;;;0.70;0.70;;;;;;;35.58;57.92;100026.00;5052168;28;20253;-77
2023/07/18 04:41:12;;;;;;;0.70;0.70;;;;;;;35.58;58.74;100026.00;5052174;28;20203;-75
2023/07/18 04:43:39;;;;;;;0.50;0.50;;;;;;;35.95;57.83;100034.38;5051739;28;20203;-74
2023/07/18 04:46:07;;;;;;;0.50;0.50;;;;;;;36.45;56.47;100033.28;5051410;28;20195;-75
2023/07/18 04:48:35;;;;;;;0.60;0.60;;;;;;;36.87;53.28;100032.97;5052011;28;20301;-75
2023/07/18 04:51:02;;;;;;;0.50;0.50;;;;;;;36.84;52.81;100020.59;5052526;28;20231;-75
2023/07/18 04:53:30;;;;;;;0.60;0.60;;;;;;;37.25;52.26;100030.16;5052268;28;20203;-75
2023/07/18 04:55:57;;;;;;;0.50;0.50;;;;;;;37.34;51.47;100026.59;5051195;28;20195;-75
2023/07/18 04:58:25;;;;;;;0.60;0.60;;;;;;;37.73;50.36;100017.28;5051308;28;20280;-76
2023/07/18 05:00:53;;;;;;;0.60;0.60;;;;;;;38.14;49.79;100015.00;5051846;28;20312;-73
2023/07/18 05:03:20;;;;;;;0.63;0.63;;;;;;;38.64;48.22;100021.56;5052171;28;20203;-75
2023/07/18 05:05:48;;;;;;;0.90;0.90;;;;;;;38.90;47.20;100009.94;5051610;28;20206;-75
2023/07/18 05:08:16;;;;;;;0.50;0.50;;;;;;;39.04;46.33;100031.03;5048909;28;20702;-75
2023/07/18 05:10:43;;;;;;;0.60;0.60;;;;;;;38.69;46.95;100032.81;5048830;28;20190;-75
2023/07/18 05:13:10;;;;;;;0.73;0.73;;;;;;;37.88;49.11;100011.34;5048088;28;20199;-74
2023/07/18 05:15:37;;;;;;;0.52;0.52;;;;;;;38.11;49.00;99986.38;5050659;28;20684;-73
2023/07/18 05:18:04;;;;;;;0.80;0.80;;;;;;;38.55;48.63;100019.84;5050150;28;20207;-72
2023/07/18 05:20:31;;;;;;;0.50;0.50;;;;;;;38.97;47.83;100028.13;5049129;28;20214;-73
2023/07/18 05:22:59;;;;;;;0.60;0.60;;;;;;;39.10;46.34;100033.94;5046759;28;20199;-76
2023/07/18 05:25:26;;;;;;;0.75;0.75;;;;;;;39.11;46.33;100032.09;5030067;28;20195;-74
2023/07/18 05:27:53;;;;;;;0.70;0.70;;;;;;;39.21;45.75;100021.97;5045083;28;20206;-72
2023/07/18 05:30:20;;;;;;;0.60;0.60;;;;;;;38.54;46.92;100018.13;5049983;28;20211;-72
2023/07/18 05:32:52;;;;;;;0.70;0.70;;;;;;;38.16;47.83;100002.19;5044779;28;20892;-73
2023/07/18 05:35:19;;;;;;;0.93;0.93;;;;;;;37.72;48.01;100014.72;5050414;28;20215;-73
2023/07/18 05:37:46;;;;;;;1.00;1.00;;;;;;;37.18;49.95;100023.66;5048819;28;20194;-73
2023/07/18 05:40:15;;;;;;;0.65;0.65;;;;;;;37.15;50.81;100021.25;5049339;28;20308;-73
2023/07/18 05:42:43;;;;;;;0.55;0.55;;;;;;;36.99;52.59;100027.25;5050549;28;20585;-73
2023/07/18 05:45:10;;;;;;;0.60;0.60;;;;;;;36.83;51.85;100023.44;5050826;28;20191;-73
2023/07/18 05:47:37;;;;;;;1.15;1.00;;;;;;;37.44;50.66;100027.38;5050842;28;20272;-73
2023/07/18 05:50:05;;;;;;;0.70;0.70;;;;;;;37.80;50.29;100016.66;5050890;28;20276;-75
2023/07/18 05:52:32;;;;;;;0.70;0.70;;;;;;;37.06;51.09;100012.19;5051129;28;20337;-74
2023/07/18 05:54:58;;;;;;;0.70;0.70;;;;;;;37.00;52.71;100028.09;5050814;28;20692;-72
2023/07/18 05:57:27;;;;;;;0.65;0.65;;;;;;;37.59;50.95;100023.22;5051084;28;20226;-75
2023/07/18 05:59:54;;;;;;;0.85;0.85;;;;;;;36.42;52.78;99957.09;5051402;28;20210;-75
2023/07/18 06:02:21;;;;;;;1.98;1.02;;;;;;;36.04;54.98;100018.19;5050837;28;20256;-75
2023/07/18 06:04:48;;;;;;;0.60;0.60;;;;;;;36.11;57.48;100010.38;5050937;28;20240;-75
2023/07/18 06:07:16;;;;;;;0.50;0.50;;;;;;;35.57;60.02;100019.75;5045995;28;20194;-74
2023/07/18 06:09:43;;;;;;;0.60;0.60;;;;;;;35.91;60.01;100017.59;5051046;28;20611;-74
2023/07/18 06:12:10;;;;;;;0.60;0.60;;;;;;;35.53;61.54;100002.13;5051614;28;20264;-74
2023/07/18 06:14:38;;;;;;;0.80;0.80;;;;;;;35.39;62.71;100021.41;5054285;28;20267;-73
2023/07/18 06:17:05;;;;;;;0.80;0.80;;;;;;;34.65;64.75;99988.38;5054145;28;20697;-74
2023/07/18 06:19:32;;;;;;;0.75;0.75;;;;;;;35.16;63.78;100014.50;5014842;28;20219;-74
2023/07/18 06:21:59;;;;;;;0.60;0.60;;;;;;;35.24;62.57;100012.84;5052503;28;20203;-75
2023/07/18 06:24:26;;;;;;;0.60;0.60;;;;;;;35.24;64.97;100009.28;5053922;28;20202;-74
2023/07/18 06:26:52;;;;;;;0.80;0.80;;;;;;;35.07;64.55;100007.22;5054163;28;20203;-72
2023/07/18 06:29:20;;;;;;;0.60;0.60;;;;;;;35.08;65.86;100017.84;5054521;28;20229;-72
2023/07/18 06:31:49;;;;;;;0.60;0.60;;;;;;;34.87;66.20;100010.78;5054160;28;20640;-72
2023/07/18 06:34:17;;;;;;;0.65;0.65;;;;;;;34.91;66.56;100010.38;5054411;28;20199;-76
2023/07/18 06:36:45;;;;;;;0.65;0.65;;;;;;;34.82;67.02;100016.53;5054332;28;20290;-74
2023/07/18 06:39:13;;;;;;;0.57;0.57;;;;;;;34.34;70.65;99994.66;5054369;28;20270;-75
2023/07/18 06:41:40;;;;;;;0.98;0.98;;;;;;;34.38;70.51;100006.88;5054460;28;20195;-75
2023/07/18 06:44:08;;;;;;;0.60;0.60;;;;;;;34.27;69.59;100018.56;5054654;28;20264;-73
2023/07/18 06:46:36;;;;;;;0.60;0.60;;;;;;;33.91;70.61;100028.81;5054261;28;20203;-74
2023/07/18 06:49:04;;;;;;;0.85;0.85;;;;;;;33.86;72.63;100031.88;5053044;28;20203;-74
2023/07/18 06:51:31;;;;;;;1.20;0.95;;;;;;;33.56;75.74;100027.13;5054325;28;20230;-75
2023/07/18 06:53:57;;;;;;;1.55;1.08;;;;;;;33.88;73.53;100022.72;5054312;28;20682;-75
2023/07/18 06:56:24;;;;;;;0.65;0.65;;;;;;;34.09;74.06;100035.34;5054530;28;20254;-75
2023/07/18 06:58:51;;;;;;;0.90;0.90;;;;;;;33.73;75.19;100023.97;5019327;28;20226;-76
2023/07/18 07:01:18;;;;;;;0.95;0.95;;;;;;;33.92;76.69;100034.06;5054024;28;20203;-72
2023/07/18 07:03:45;;;;;;;0.60;0.60;;;;;;;33.83;74.84;100032.97;5053510;28;20214;-74
2023/07/18 07:06:14;;;;;;;0.60;0.60;;;;;;;33.63;74.98;99995.25;5053809;28;20226;-72
2023/07/18 07:08:41;;;;;;;0.85;0.85;;;;;;;33.75;75.87;100050.72;5053540;28;20206;-74
2023/07/18 07:11:09;;;;;;;0.68;0.68;;;;;;;33.52;75.59;100008.69;5053515;28;20199;-71
2023/07/18 07:13:37;;;;;;;0.80;0.80;;;;;;;33.85;76.03;100028.31;5053447;28;20202;-70
2023/07/18 07:16:03;;;;;;;2.55;1.40;;;;;;;33.87;75.72;100029.06;5018310;28;20211;-71
2023/07/18 07:18:30;;;;;;;0.68;0.68;;;;;;;33.94;75.67;100028.53;5053339;28;20290;-72
2023/07/18 07:20:57;;;;;;;0.70;0.70;;;;;;;34.28;74.27;100038.28;5053061;28;20260;-70
2023/07/18 07:23:25;;;;;;;0.73;0.73;;;;;;;34.58;72.51;100046.44;5052784;28;20202;-70
2023/07/18 07:25:52;;;;;;;0.60;0.60;;;;;;;34.26;71.12;100040.22;5053203;28;20272;-71
2023/07/18 07:28:22;;;;;;;0.70;0.70;;;;;;;34.20;72.44;100052.38;5053143;28;20207;-73
2023/07/18 07:30:49;;;;;;;0.85;0.85;;;;;;;34.28;71.50;100022.09;5053248;28;20557;-71
2023/07/18 07:33:16;;;;;;;0.80;0.80;;;;;;;34.49;72.02;100052.63;5052876;28;20238;-71
2023/07/18 07:35:44;;;;;;;0.60;0.60;;;;;;;34.41;73.33;100036.25;5052923;28;20257;-71
2023/07/18 07:38:11;;;;;;;0.75;0.75;;;;;;;34.87;72.76;100046.66;5052790;28;20339;-71
2023/07/18 07:40:39;;;;;;;0.75;0.75;;;;;;;35.34;72.08;100037.16;5052987;28;20199;-72
2023/07/18 07:43:06;;;;;;;0.75;0.75;;;;;;;35.32;66.79;100053.44;5051646;28;20317;-70
2023/07/18 07:45:33;;;;;;;0.93;0.93;;;;;;;35.03;68.37;100047.03;5052850;28;20203;-73
2023/07/18 07:47:59;;;;;;;0.82;0.82;;;;;;;34.97;70.39;100042.19;5030587;28;20272;-72
2023/07/18 07:50:26;;;;;;;0.60;0.60;;;;;;;35.00;70.91;100041.03;5043314;28;20214;-70
2023/07/18 07:52:53;;;;;;;0.60;0.60;;;;;;;34.79;67.97;100049.16;5052610;28;20234;-69
2023/07/18 07:55:19;;;;;;;2.17;2.05;;;;;;;34.41;70.41;100022.78;5052516;28;20202;-69
2023/07/18 07:57:48;;;;;;;1.95;0.80;;;;;;;34.55;71.55;100046.69;5050257;28;20230;-69
2023/07/18 08:00:15;;;;;;;1.60;1.52;;;;;;;34.84;70.36;100050.50;5051281;28;20203;-70
2023/07/18 08:02:42;;;;;;;0.60;0.60;;;;;;;34.47;68.54;100016.00;5017489;28;20210;-70
2023/07/18 08:05:09;;;;;;;1.25;1.25;;;;;;;34.77;67.10;100052.00;5052038;28;20199;-71
2023/07/18 08:07:36;;;;;;;0.80;0.80;;;;;;;34.99;67.21;100050.16;5049136;28;20202;-72
2023/07/18 08:10:03;;;;;;;1.15;1.15;;;;;;;34.94;67.48;100041.59;5052411;28;20214;-70
2023/07/18 08:12:30;;;;;;;0.70;0.70;;;;;;;35.20;65.79;100048.31;5049705;28;20231;-71
2023/07/18 08:14:58;;;;;;;0.77;0.77;;;;;;;35.47;65.23;100037.75;5032765;28;20204;-70
2023/07/18 08:17:25;;;;;;;0.63;0.63;;;;;;;35.69;65.07;100051.09;5032187;28;20204;-71
2023/07/18 08:19:52;;;;;;;0.60;0.60;;;;;;;35.33;65.98;100040.81;5032345;28;20207;-71
2023/07/18 08:22:19;;;;;;;0.88;0.88;;;;;;;35.63;65.78;100057.03;5032140;28;20204;-71
2023/07/18 08:24:45;;;;;;;2.83;1.27;;;;;;;35.22;67.18;100031.00;5032390;28;20199;-72
2023/07/18 08:27:12;;;;;;;1.20;1.20;;;;;;;35.19;68.31;100070.84;5032283;28;20199;-72
2023/07/18 08:29:41;;;;;;;4.38;0.90;;;;;;;35.32;69.88;100056.16;5032076;28;20203;-71
2023/07/18 08:32:10;;;;;;;0.60;0.60;;;;;;;35.56;69.54;100055.84;5032277;28;20231;-71
2023/07/18 08:34:36;;;;;;;0.60;0.60;;;;;;;35.26;70.16;100058.53;5047171;28;20221;-82
2023/07/18 08:37:05;;;;;;;1.00;1.00;;;;;;;35.26;68.79;100053.16;5032871;28;20203;-74
2023/07/18 08:39:32;;;;;;;0.70;0.70;;;;;;;35.26;70.82;100058.53;5051857;28;20574;-71
2023/07/18 08:41:59;;;;;;;0.70;0.70;;;;;;;35.17;71.83;100051.28;5051955;28;20566;-72
2023/07/18 08:44:26;;;;;;;0.60;0.60;;;;;;;35.31;72.03;100034.72;5014502;28;20246;-72
2023/07/18 08:46:54;;;;;;;0.73;0.73;;;;;;;35.48;72.41;100052.09;5051204;28;20234;-74
2023/07/18 08:49:27;;;;;;;0.60;0.60;;;;;;;35.24;69.31;100052.44;5051321;28;20199;-73
2023/07/18 08:51:54;;;;;;;0.77;0.77;;;;;;;35.32;73.40;100047.19;5049945;28;20207;-71
2023/07/18 08:54:21;;;;;;;0.75;0.75;;;;;;;35.42;75.72;100041.88;5046738;28;20221;-72
2023/07/18 08:56:48;;;;;;;0.80;0.80;;;;;;;35.47;74.99;100043.16;5013541;28;20210;-72
2023/07/18 08:59:16;;;;;;;0.60;0.60;;;;;;;35.39;71.87;100034.88;5050970;28;20254;-72
2023/07/18 09:01:48;;;;;;;1.15;1.15;;;;;;;35.65;72.22;100060.44;5051202;28;20214;-72
2023/07/18 09:04:14;;;;;;;0.90;0.90;;;;;;;35.80;73.30;100048.28;5051626;28;20617;-72
2023/07/18 09:06:48;;;;;;;0.60;0.60;;;;;;;36.17;68.43;100044.97;5051428;28;20650;-72
2023/07/18 09:09:17;;;;;;;0.60;0.60;;;;;;;35.87;69.04;100053.97;5051193;28;20222;-73
2023/07/18 09:11:54;;;;;;;1.00;1.00;;;;;;;35.92;64.69;100050.84;5051201;28;20268;-73
2023/07/18 09:14:26;;;;;;;0.60;0.60;;;;;;;35.96;65.82;100049.59;5040157;28;20227;-72
2023/07/18 09:16:54;;;;;;;0.60;0.60;;;;;;;35.62;66.65;99976.22;5030582;28;20202;-72
2023/07/18 09:19:35;;;;;;;0.70;0.70;;;;;;;36.16;64.30;100045.94;5030843;28;20313;-72
2023/07/18 09:22:04;;;;;;;0.60;0.60;;;;;;;36.32;64.33;100027.31;5037140;28;20201;-71
2023/07/18 09:24:31;;;;;;;0.60;0.60;;;;;;;36.15;66.30;100042.38;5013899;28;20215;-73
2023/07/18 09:26:58;;;;;;;1.10;0.98;;;;;;;36.45;64.27;100036.00;5005792;28;20344;-71
2023/07/18 09:29:25;;;;;;;0.77;0.77;;;;;;;36.22;62.10;100004.84;5039752;28;20272;-72
2023/07/18 09:31:51;;;;;;;0.70;0.70;;;;;;;36.51;61.47;100043.53;5040605;28;20206;-74
2023/07/18 09:34:19;;;;;;;0.82;0.82;;;;;;;36.53;62.04;100041.50;5037229;28;20214;-73
2023/07/18 09:36:55;;;;;;;0.60;0.60;;;;;;;36.62;59.79;100040.69;5047632;28;20210;-75
2023/07/18 09:39:24;;;;;;;0.60;0.60;;;;;;;36.87;60.13;100038.38;5049455;28;20245;-72
2023/07/18 09:41:52;;;;;;;0.80;0.80;;;;;;;36.74;59.66;100025.19;5049147;28;20264;-73
2023/07/18 09:44:19;;;;;;;1.30;1.27;;;;;;;36.73;58.71;100032.44;5049846;28;20670;-73
2023/07/18 09:46:46;;;;;;;0.70;0.70;;;;;;;36.75;57.22;100034.97;5031369;28;20203;-73
2023/07/18 09:49:14;;;;;;;1.02;1.02;;;;;;;36.72;57.70;100011.81;5048949;28;20670;-72
2023/07/18 09:51:46;;;;;;;0.70;0.70;;;;;;;36.83;56.16;100018.03;5030321;28;20530;-74
2023/07/18 09:54:15;;;;;;;1.25;1.25;;;;;;;36.70;57.33;100015.66;5030673;28;20235;-75
2023/07/18 09:56:45;;;;;;;0.80;0.80;;;;;;;36.79;55.59;100006.66;5030499;28;20206;-72
2023/07/18 09:59:12;;;;;;;1.35;1.25;;;;;;;36.89;55.14;100021.00;5030012;28;20235;-72
2023/07/18 10:01:39;;;;;;;0.82;0.82;;;;;;;36.90;53.97;100021.84;5030057;28;20281;-72
2023/07/18 10:04:07;;;;;;;0.80;0.80;;;;;;;37.15;53.13;100021.25;5030210;28;20203;-74
2023/07/18 10:06:34;;;;;;;1.25;1.25;;;;;;;37.20;50.97;100017.09;5030280;28;21497;-74
2023/07/18 10:09:03;;;;;;;0.73;0.73;;;;;;;37.35;51.75;100020.16;5030475;28;20199;-72
2023/07/18 10:11:29;;;;;;;0.65;0.65;;;;;;;37.71;51.83;100008.44;5027791;28;20202;-72
2023/07/18 10:14:14;;;;;;;0.77;0.77;;;;;;;38.07;49.69;100013.94;5030023;28;20300;-72
2023/07/18 10:16:44;;;;;;;1.00;1.00;;;;;;;37.76;49.20;100001.72;5049018;28;20644;-72
2023/07/18 10:19:19;;;;;;;0.60;0.60;;;;;;;37.81;48.46;100008.41;5050101;28;20241;-71
2023/07/18 10:21:47;;;;;;;0.63;0.63;;;;;;;37.64;47.93;99996.53;5014333;28;20787;-75
2023/07/18 10:24:31;;;;;;;0.60;0.60;;;;;;;37.86;47.77;99999.81;5050160;28;20749;-74
2023/07/18 10:27:01;;;;;;;0.60;0.60;;;;;;;37.69;47.85;99993.38;5044777;28;20270;-72
2023/07/18 10:29:33;;;;;;;1.05;1.05;;;;;;;37.87;47.77;99990.69;5030286;28;20261;-72
2023/07/18 10:32:00;;;;;;;0.60;0.60;;;;;;;38.03;48.08;99990.91;5029812;28;20192;-72
2023/07/18 10:34:27;;;;;;;0.60;0.60;;;;;;;37.65;48.41;99938.69;5029942;28;20310;-72
2023/07/18 10:36:56;;;;;;;0.68;0.68;;;;;;;37.78;45.72;99988.91;5030075;28;20261;-70
2023/07/18 10:39:38;;;;;;;0.60;0.60;;;;;;;37.62;47.01;99919.19;5030083;28;20196;-71
2023/07/18 10:42:07;;;;;;;0.75;0.75;;;;;;;37.79;46.41;99925.63;5029735;28;20219;-71
2023/07/18 10:44:36;;;;;;;0.63;0.63;;;;;;;38.38;46.01;99985.47;5030096;28;20585;-74
2023/07/18 10:47:12;;;;;;;0.57;0.57;;;;;;;38.41;45.88;99974.31;5029842;28;20322;-74
2023/07/18 10:49:39;;;;;;;0.60;0.60;;;;;;;37.81;44.06;99910.09;5029921;28;20207;-72
2023/07/18 10:52:07;;;;;;;0.63;0.63;;;;;;;38.59;43.33;99977.00;5029507;28;20655;-70
2023/07/18 10:54:34;;;;;;;0.60;0.60;;;;;;;38.72;42.88;99969.28;5030648;28;20231;-71
2023/07/18 10:57:00;;;;;;;0.70;0.70;;;;;;;38.84;41.97;99969.91;5033426;28;20204;-70
2023/07/18 10:59:27;;;;;;;0.70;0.70;;;;;;;39.23;42.50;99949.41;5033143;28;20262;-70
2023/07/18 11:01:59;;;;;;;0.93;0.93;;;;;;;39.41;41.52;99968.34;5033251;28;20213;-70
2023/07/18 11:04:26;;;;;;;0.80;0.80;;;;;;;39.35;42.57;99966.28;5033289;28;20246;-68
2023/07/18 11:06:55;;;;;;;0.80;0.80;;;;;;;39.52;40.81;99954.47;4998337;28;20206;-70
2023/07/18 11:09:22;;;;;;;0.60;0.60;;;;;;;39.45;41.10;99964.28;5033298;28;20199;-71
2023/07/18 11:11:49;;;;;;;1.00;1.00;;;;;;;39.31;41.01;99967.63;5033351;28;20365;-72
2023/07/18 11:14:16;;;;;;;0.60;0.60;;;;;;;39.54;40.40;99966.84;5032913;28;20235;-72
2023/07/18 11:16:43;;;;;;;1.85;1.58;;;;;;;39.64;39.13;99970.25;5033382;28;20203;-72
2023/07/18 11:19:11;;;;;;;0.63;0.63;;;;;;;39.39;40.10;99959.47;5052979;28;20576;-70
2023/07/18 11:21:38;;;;;;;0.70;0.70;;;;;;;39.33;39.48;99938.44;5053131;28;20215;-70
2023/07/18 11:24:05;;;;;;;0.70;0.70;;;;;;;39.11;40.68;99959.69;5033626;28;20314;-69
2023/07/18 11:26:32;;;;;;;0.68;0.68;;;;;;;39.23;41.20;99938.56;5050063;28;20528;-71
2023/07/18 11:29:01;;;;;;;0.60;0.60;;;;;;;39.99;39.23;99952.03;5034620;28;20624;-71